Impacts METAR Board
IDs:

KBWI - Baltimore-Washington, MD, US

Updated at: 2000 UTC 15 Jun 2019
Potential Impact None Slight Moderate High
Time 15/08Z 15/09Z 15/10Z 15/11Z 15/12Z 15/13Z 15/14Z 15/15Z 15/16Z 15/17Z 15/18Z 15/19Z 15/20Z
Temp57 54 54 57 65 65 67 70 77 80 82 82 84
Dewpt51 51 51 53 54 55 55 56 56 55 55 54 51
Altim30.12 30.12 30.13 30.14 30.15 30.15 30.15 30.14 30.12 30.10 30.06 30.04 30.02
VIS10 10 10 10 10 10 10 10 10 10 10 10 10
CIG-- -- -- -- 250 200 180 140 250 -- 250 150 190
CoverSCTFEWFEWSCTBKNBKNBKNBKNBKNSCTBKNBKNBKN
FltCatVFRVFRVFRVFRVFRVFRVFRVFRVFRVFRVFRVFRVFR
WX--------------------------
WDir000270220230230230240200190190220
WSpd0 0 0 3 6 6 6 9 11 9 7 7 12
WGst-- -- -- -- -- -- -- -- 17 18 17 15 --
Raw hourly METARs
KBWI 150754Z 00000KT 10SM SCT250 14/11 A3012 RMK AO2 SLP198 T01390106
KBWI 150854Z 00000KT 10SM FEW180 FEW250 12/11 A3012 RMK AO2 SLP197 T01220106 56006
KBWI 150954Z 00000KT 10SM FEW180 FEW250 12/11 A3013 RMK AO2 SLP200 T01220106
KBWI 151054Z COR 27003KT 10SM FEW220 SCT250 14/12 A3014 RMK AO2 SLP205 T01390117
KBWI 151154Z 22006KT 10SM FEW220 BKN250 18/12 A3015 RMK AO2 SLP207 T01830122 10183 20117 51010
KBWI 151254Z 23006KT 10SM BKN200 18/13 A3015 RMK AO2 SLP210 T01830128
KBWI 151354Z 23006KT 10SM BKN180 BKN250 19/13 A3015 RMK AO2 SLP209 T01940128
KBWI 151454Z 23009KT 10SM BKN140 BKN250 21/13 A3014 RMK AO2 SLP206 T02110133 58002
KBWI 151554Z 24011G17KT 10SM FEW140 SCT200 BKN250 25/13 A3012 RMK AO2 SLP200 T02500133
KBWI 151654Z 20009G18KT 10SM FEW140 SCT200 SCT250 27/13 A3010 RMK AO2 SLP189 T02670128
KBWI 151754Z 19007G17KT 10SM FEW100 SCT140 SCT200 BKN250 28/13 A3006 RMK AO2 SLP178 T02780128 10283 20178 58027
KBWI 151854Z 19007G15KT 10SM FEW100 BKN150 BKN250 28/12 A3004 RMK AO2 SLP170 T02780122
KBWI 151954Z 22012KT 10SM FEW060 SCT120 BKN190 BKN220 29/11 A3002 RMK AO2 SLP164 T02890106



Page loaded:  20:33 UTC  |   01:33 PM Pacific  |   02:33 PM Mountain  |   03:33 PM Central  |   04:33 PM Eastern

 

ADVISORIES

FORECASTS

FORECASTS

OBSERVATIONS

USER TOOLS

ABOUT US